createdAt,value
2022-08-12T00:00:37.295Z,15.07
2022-08-12T00:05:36.451Z,15.25
2022-08-12T00:10:37.557Z,15.25
2022-08-12T00:15:39.701Z,15.44
2022-08-12T00:20:39.838Z,15.25
2022-08-12T00:26:00.442Z,15.25
2022-08-12T00:30:38.952Z,15.07
2022-08-12T00:35:40.058Z,15.44
2022-08-12T00:40:39.602Z,15.25
2022-08-12T00:45:41.713Z,14.82
2022-08-12T00:50:41.814Z,14.64
2022-08-12T00:55:40.931Z,14.64
2022-08-12T01:00:43.049Z,14.64
2022-08-12T01:05:42.249Z,14.64
2022-08-12T01:10:43.371Z,14.64
2022-08-12T01:15:49.694Z,14.82
2022-08-12T01:20:44.817Z,14.82
2022-08-12T01:25:56.007Z,14.82
2022-08-12T01:30:46.933Z,14.82
2022-08-12T01:35:46.061Z,15.00
2022-08-12T01:40:47.197Z,15.00
2022-08-12T01:45:47.381Z,15.17
2022-08-12T01:50:46.500Z,15.17
2022-08-12T01:55:48.647Z,15.17
2022-08-12T02:00:55.259Z,14.19
2022-08-12T02:05:49.879Z,14.36
2022-08-12T02:10:51.927Z,14.19
2022-08-12T02:15:50.303Z,14.36
2022-08-12T02:20:52.403Z,14.19
2022-08-12T02:25:51.016Z,14.36
2022-08-12T02:30:50.165Z,14.53
2022-08-12T02:35:51.315Z,14.53
2022-08-12T02:40:54.436Z,14.36
2022-08-12T02:45:53.556Z,14.53
2022-08-12T02:50:53.706Z,14.53
2022-08-12T02:55:55.797Z,14.70
2022-08-12T03:00:54.974Z,14.70
2022-08-12T03:05:56.053Z,14.87
2022-08-12T03:10:57.171Z,14.87
2022-08-12T03:15:59.260Z,14.87
2022-08-12T03:20:58.371Z,14.70
2022-08-12T03:25:59.552Z,14.53
2022-08-12T03:31:01.633Z,14.53
2022-08-12T03:36:00.759Z,14.70
2022-08-12T03:41:01.941Z,14.04
2022-08-12T03:46:04.062Z,13.88
2022-08-12T03:51:04.209Z,14.04
2022-08-12T03:56:04.360Z,14.04
2022-08-12T04:01:03.539Z,13.88
2022-08-12T04:06:04.701Z,14.20
2022-08-12T04:11:05.884Z,14.20
2022-08-12T04:16:07.028Z,14.20
2022-08-12T04:21:08.163Z,14.20
2022-08-12T04:26:09.325Z,14.20
2022-08-12T04:31:10.487Z,14.20
2022-08-12T04:36:11.617Z,14.20
2022-08-12T04:41:12.775Z,14.37
2022-08-12T04:46:13.908Z,14.20
2022-08-12T04:51:15.134Z,13.88
2022-08-12T04:56:16.282Z,13.88
2022-08-12T05:01:18.462Z,13.88
2022-08-12T05:06:26.423Z,14.87
2022-08-12T05:11:17.513Z,14.70
2022-08-12T05:16:19.614Z,14.53
2022-08-12T05:21:20.549Z,14.19
2022-08-12T05:26:19.650Z,14.27
2022-08-12T05:31:47.551Z,14.27
2022-08-12T05:36:21.694Z,15.07
2022-08-12T05:41:20.897Z,14.88
2022-08-12T05:46:22.005Z,14.69
2022-08-12T05:51:23.106Z,14.50
2022-08-12T05:56:24.061Z,14.87
2022-08-12T06:02:12.127Z,14.87
2022-08-12T06:06:27.607Z,14.67
2022-08-12T06:11:24.860Z,14.47
2022-08-12T06:16:25.988Z,13.70
2022-08-12T06:21:28.125Z,14.47
2022-08-12T06:26:28.237Z,14.47
2022-08-12T06:31:27.527Z,13.84
2022-08-12T06:36:33.430Z,14.26
2022-08-12T06:41:33.822Z,14.05
2022-08-12T06:46:28.924Z,14.26
2022-08-12T06:51:29.188Z,14.26
2022-08-12T06:57:01.793Z,14.05
2022-08-12T07:01:36.230Z,13.84
2022-08-12T07:06:31.336Z,14.58
2022-08-12T07:11:34.445Z,14.80
2022-08-12T07:16:33.535Z,14.58
2022-08-12T07:21:59.468Z,14.80
2022-08-12T07:26:34.083Z,14.36
2022-08-12T07:31:34.398Z,14.58
2022-08-12T07:36:34.529Z,14.80
2022-08-12T07:41:34.638Z,14.58
2022-08-12T07:46:34.759Z,14.80
2022-08-12T07:51:33.879Z,14.36
2022-08-12T07:56:36.006Z,14.36
2022-08-12T08:01:35.227Z,14.36
2022-08-12T08:06:36.400Z,14.36
2022-08-12T08:11:37.516Z,15.09
2022-08-12T08:16:47.413Z,14.87
2022-08-12T08:21:40.515Z,14.87
2022-08-12T08:26:39.631Z,14.87
2022-08-12T08:31:45.360Z,15.35
2022-08-12T08:36:40.627Z,15.12
2022-08-12T08:42:17.226Z,14.17
2022-08-12T08:46:41.475Z,14.40
2022-08-12T08:51:42.656Z,14.40
2022-08-12T08:56:43.754Z,15.35
2022-08-12T09:01:44.969Z,15.35
2022-08-12T09:06:53.806Z,15.59
2022-08-12T09:16:44.580Z,15.12
2022-08-12T09:21:54.319Z,14.63
2022-08-12T09:26:46.278Z,15.57
2022-08-12T09:32:07.652Z,15.33
2022-08-12T09:36:58.033Z,15.07
2022-08-12T09:42:34.886Z,15.07
2022-08-12T09:46:45.836Z,14.81
2022-08-12T09:51:45.167Z,14.55
2022-08-12T09:57:01.799Z,14.55
2022-08-12T10:02:42.137Z,15.49
2022-08-12T10:06:48.760Z,15.22
2022-08-12T10:12:11.272Z,14.95
2022-08-12T10:16:48.506Z,14.68
2022-08-12T10:21:56.827Z,14.68
2022-08-12T10:26:50.576Z,14.40
2022-08-12T10:32:21.408Z,14.40
2022-08-12T10:36:51.892Z,14.68
2022-08-12T10:41:56.849Z,15.04
2022-08-12T10:46:52.074Z,14.75
2022-08-12T10:52:32.321Z,15.04
2022-08-12T10:56:52.434Z,15.04
2022-08-12T11:04:25.126Z,13.22
2022-08-12T11:07:05.629Z,14.14
2022-08-12T11:12:36.098Z,13.81
2022-08-12T11:17:33.763Z,12.57
2022-08-12T11:21:58.147Z,13.14
2022-08-12T11:26:53.519Z,13.81
2022-08-12T11:32:02.198Z,12.80
2022-08-12T11:36:56.591Z,14.05
2022-08-12T11:41:55.618Z,12.80
2022-08-12T11:46:56.777Z,12.99
2022-08-12T11:51:58.916Z,12.09
2022-08-12T11:56:59.627Z,12.99
2022-08-12T12:02:01.887Z,12.09
2022-08-12T12:07:07.127Z,12.62
2022-08-12T12:11:58.460Z,12.62
2022-08-12T12:16:59.605Z,12.62
2022-08-12T12:21:59.175Z,12.62
2022-08-12T12:27:01.504Z,13.35
2022-08-12T12:32:10.851Z,12.62
2022-08-12T12:37:00.976Z,11.86
2022-08-12T12:42:43.792Z,12.25
2022-08-12T12:47:01.756Z,10.97
2022-08-12T12:52:19.835Z,12.62
2022-08-12T12:57:04.044Z,11.86
2022-08-12T13:02:06.195Z,11.86
2022-08-12T13:07:03.389Z,11.86
2022-08-12T13:12:04.052Z,11.47
2022-08-12T13:17:03.467Z,11.47
2022-08-12T13:22:03.246Z,11.86
2022-08-12T13:27:05.346Z,11.86
2022-08-12T13:32:19.478Z,12.25
2022-08-12T13:37:09.986Z,11.47
2022-08-12T13:42:07.257Z,11.86
2022-08-12T13:47:19.537Z,11.47
2022-08-12T13:52:08.988Z,12.25
2022-08-12T13:57:11.057Z,11.86
2022-08-12T14:02:09.060Z,11.86
2022-08-12T14:07:09.232Z,11.86
2022-08-12T14:12:09.330Z,11.47
2022-08-12T14:17:10.843Z,11.47
2022-08-12T14:22:10.038Z,12.75
2022-08-12T14:27:11.677Z,11.86
2022-08-12T14:32:11.856Z,12.36
2022-08-12T14:37:55.565Z,12.36
2022-08-12T14:42:12.888Z,11.86
2022-08-12T14:47:14.144Z,11.86
2022-08-12T14:53:50.767Z,12.25
2022-08-12T14:58:00.769Z,12.62
2022-08-12T15:02:15.357Z,12.62
2022-08-12T15:07:32.714Z,12.62
2022-08-12T15:12:14.830Z,11.73
2022-08-12T15:17:37.530Z,12.09
2022-08-12T15:22:36.795Z,12.62
2022-08-12T15:27:15.838Z,11.73
2022-08-12T15:32:16.275Z,12.25
2022-08-12T15:37:17.184Z,12.25
2022-08-12T15:42:16.429Z,11.86
2022-08-12T15:47:16.614Z,11.86
2022-08-12T15:52:27.179Z,12.25
2022-08-12T15:57:17.702Z,13.52
2022-08-12T16:02:17.840Z,12.99
2022-08-12T16:07:16.992Z,12.25
2022-08-12T16:12:22.135Z,12.25
2022-08-12T16:17:26.097Z,11.86
2022-08-12T16:22:20.405Z,12.25
2022-08-12T16:27:23.261Z,12.25
2022-08-12T16:32:22.402Z,12.75
2022-08-12T16:37:32.529Z,11.86
2022-08-12T16:42:23.348Z,11.86
2022-08-12T16:47:27.317Z,11.86
2022-08-12T16:52:24.531Z,11.47
2022-08-12T16:57:34.836Z,12.36
2022-08-12T17:02:31.868Z,11.86
2022-08-12T17:07:27.572Z,11.86
2022-08-12T17:12:25.500Z,11.47
2022-08-12T17:17:38.857Z,11.86
2022-08-12T17:22:30.067Z,11.86
2022-08-12T17:27:30.909Z,11.86
2022-08-12T17:32:29.266Z,11.86
2022-08-12T17:37:29.671Z,11.73
2022-08-12T17:42:32.314Z,10.97
2022-08-12T17:47:35.814Z,11.86
2022-08-12T17:52:33.159Z,11.35
2022-08-12T17:57:32.647Z,10.83
2022-08-12T18:02:33.593Z,11.73
2022-08-12T18:07:35.736Z,10.83
2022-08-12T18:12:35.619Z,11.55
2022-08-12T18:17:31.918Z,10.99
2022-08-12T18:22:34.796Z,10.99
2022-08-12T18:27:42.117Z,11.33
2022-08-12T18:32:53.754Z,11.33
2022-08-12T18:37:42.207Z,10.42
2022-08-12T18:42:34.748Z,10.75
2022-08-12T18:47:50.185Z,10.75
2022-08-12T18:52:37.204Z,10.75
2022-08-12T18:58:05.894Z,11.08
2022-08-12T19:02:40.587Z,11.08
2022-08-12T19:07:49.754Z,11.08
2022-08-12T19:12:39.157Z,11.40
2022-08-12T19:17:56.370Z,11.40
2022-08-12T19:22:39.634Z,10.79
2022-08-12T19:27:50.718Z,10.79
2022-08-12T19:32:40.252Z,10.79
2022-08-12T19:38:06.584Z,11.39
2022-08-12T19:42:44.280Z,12.54
2022-08-12T19:47:42.132Z,11.88
2022-08-12T19:52:41.552Z,12.68
2022-08-12T19:57:42.561Z,12.68
2022-08-12T20:02:43.370Z,12.94
2022-08-12T20:07:57.038Z,12.49
2022-08-12T20:13:10.258Z,12.00
2022-08-12T20:17:50.640Z,11.74
2022-08-12T20:22:43.517Z,11.74
2022-08-12T20:28:02.749Z,12.25
2022-08-12T20:32:47.961Z,12.49
2022-08-12T20:38:06.753Z,12.03
2022-08-12T20:42:43.813Z,12.27
2022-08-12T20:47:46.864Z,12.27
2022-08-12T20:52:45.379Z,12.27
2022-08-12T20:58:03.167Z,12.50
2022-08-12T21:02:46.311Z,12.03
2022-08-12T21:07:47.650Z,12.73
2022-08-12T21:12:44.350Z,11.78
2022-08-12T21:18:09.406Z,12.00
2022-08-12T21:22:44.577Z,12.00
2022-08-12T21:27:58.870Z,12.00
2022-08-12T21:32:47.238Z,12.00
2022-08-12T21:37:52.929Z,12.44
2022-08-12T21:42:45.412Z,13.09
2022-08-12T21:47:44.970Z,13.50
2022-08-12T21:52:48.793Z,13.70
2022-08-12T21:57:50.588Z,12.74
2022-08-12T22:02:48.576Z,12.94
2022-08-12T22:07:58.272Z,12.94
2022-08-12T22:12:46.725Z,12.53
2022-08-12T22:17:49.821Z,12.33
2022-08-12T22:22:56.081Z,12.53
2022-08-12T22:27:48.805Z,12.94
2022-08-12T22:32:55.007Z,13.13
2022-08-12T22:37:50.489Z,12.33
2022-08-12T22:42:51.837Z,12.53
2022-08-12T22:47:54.819Z,12.33
2022-08-12T22:52:50.880Z,11.70
2022-08-12T22:57:54.877Z,11.49
2022-08-12T23:03:00.319Z,11.70
2022-08-12T23:07:59.679Z,11.49
2022-08-12T23:12:54.161Z,11.49
2022-08-12T23:17:54.723Z,11.49
2022-08-12T23:23:03.079Z,12.12
2022-08-12T23:27:56.038Z,12.12
2022-08-12T23:32:54.554Z,12.12
2022-08-12T23:37:54.477Z,11.37
2022-08-12T23:42:53.834Z,11.37
2022-08-12T23:47:56.017Z,11.57
2022-08-12T23:52:55.674Z,11.57
2022-08-12T23:58:23.062Z,11.57
